Startpagina
METAR-TAF:

METAR-TAF

Vliegvelden :

Chièvres, België

Vliegbasis Chièvres

breedte: 50-34N, lengte: 003-50E, hoogte: 60 m

Actueel weer

Dit bericht is 44 minuten geleden gemaakt, om 10:25 UTC
Wind 11 kt uit het oostzuidoosten
Temperatuur 25°C
Vochtigheid 36%
Druk 1020 hPa
Zicht 10 km of meer

METAR: EBCV 261025Z AUTO 11011KT 9999 NCD 25/09 Q1020 BLU

Tijdstip: 13:09 (11:09 UTC)

Verwachting

Dit bericht is 2 uur en het 28 minuten geleden gemaakt, om 08:41 UTC
Verwachting geldig van 26 om 10 UTC tot 26 om 19 UTC
Wind 5 kt uit het oostnoordoosten
Zicht 10 km of meer
Onbewolkt

TAF: EBCV 260841Z 2610/2619 07005KT 9999 SKC BY EBWM

Waarnemingen en weersverwachtingen van meer dan 4000 vliegvelden (METAR en TAF).

De beschikbare stations zijn de gele en rode punten op de kaart.

Ga met uw muis naar het station om de naam te zien.

Klik dan om waarnemingen en weersverwachtingen te zien.

kaart wijzigen: klik op de groene knoppen met een zwart kruis om in te zoomen, op de groene knop met een streepje om uit te zoomen of op de groene pijlen voor aangrenzende kaarten.


METAR-TAF: